Time;durP1;ratioP1;P1;durP2;ratioP2;P2;SDS_P1;SDS_P2;PMS_P1;PMS_P2;Temp;Humidity;BMP_temperature;BMP_pressure;BME280_temperature;BME280_humidity;BME280_pressure;Samples;Min_cycle;Max_cycle;Signal;HPM_P1;HPM_P2
2023/05/27 00:01:57;;;;;;;15.55;4.85;;;;;;;14.69;49.55;102796.44;5009922;28;20034;-67
2023/05/27 00:04:23;;;;;;;17.08;4.85;;;;;;;14.58;49.44;102798.09;5009454;28;20057;-66
2023/05/27 00:06:48;;;;;;;15.52;4.55;;;;;;;14.61;49.53;102793.97;5010517;28;20037;-66
2023/05/27 00:09:14;;;;;;;15.35;5.13;;;;;;;14.55;49.92;102792.13;5010962;28;20083;-66
2023/05/27 00:11:39;;;;;;;13.93;4.75;;;;;;;14.46;50.06;102792.41;5009649;28;20149;-66
2023/05/27 00:14:04;;;;;;;16.73;4.55;;;;;;;14.44;49.65;102797.34;5010687;28;20068;-67
2023/05/27 00:16:31;;;;;;;17.70;5.03;;;;;;;14.41;49.99;102800.59;5009999;28;20062;-66
2023/05/27 00:18:56;;;;;;;15.48;5.15;;;;;;;14.44;49.75;102793.72;5029524;28;20033;-66
2023/05/27 00:21:23;;;;;;;19.67;5.05;;;;;;;14.36;50.36;102785.63;5030112;28;20128;-67
2023/05/27 00:23:51;;;;;;;13.68;4.65;;;;;;;14.41;49.93;102783.00;5014813;28;20129;-67
2023/05/27 00:26:16;;;;;;;18.38;5.57;;;;;;;14.27;50.70;102785.09;5016609;28;20432;-66
2023/05/27 00:28:42;;;;;;;16.98;5.22;;;;;;;14.31;50.33;102783.53;5030237;28;20034;-66
2023/05/27 00:31:07;;;;;;;18.15;5.18;;;;;;;14.27;50.37;102790.69;5029614;28;20037;-66
2023/05/27 00:33:32;;;;;;;14.80;4.43;;;;;;;14.20;50.47;102784.28;5014299;28;20389;-67
2023/05/27 00:35:57;;;;;;;17.13;5.47;;;;;;;14.25;50.02;102787.25;5013937;28;20033;-66
2023/05/27 00:38:23;;;;;;;18.25;4.88;;;;;;;14.22;50.56;102780.16;5022485;28;20033;-66
2023/05/27 00:40:49;;;;;;;14.60;5.05;;;;;;;14.19;50.42;102783.44;5021421;28;20021;-67
2023/05/27 00:43:15;;;;;;;14.73;4.80;;;;;;;14.16;50.46;102778.31;5013891;28;20026;-67
2023/05/27 00:45:40;;;;;;;15.52;5.13;;;;;;;14.02;50.86;102778.66;5014919;28;20048;-66
2023/05/27 00:48:06;;;;;;;14.30;4.75;;;;;;;14.11;50.31;102782.84;5029219;28;20112;-66
2023/05/27 00:50:31;;;;;;;12.95;4.53;;;;;;;14.10;50.92;102781.16;5025337;28;20116;-66
2023/05/27 00:52:57;;;;;;;15.02;4.95;;;;;;;13.95;50.74;102784.31;5027775;28;20037;-66
2023/05/27 00:55:23;;;;;;;16.48;5.22;;;;;;;13.87;50.96;102774.31;5031661;28;20055;-66
2023/05/27 00:57:49;;;;;;;12.65;4.40;;;;;;;13.94;51.20;102775.06;5034269;28;20037;-66
2023/05/27 01:00:15;;;;;;;16.13;4.78;;;;;;;13.92;51.15;102773.63;5017368;28;20528;-67
2023/05/27 01:02:41;;;;;;;16.20;5.10;;;;;;;13.82;51.14;102768.53;5014365;28;20026;-67
2023/05/27 01:05:07;;;;;;;15.85;5.10;;;;;;;13.80;51.05;102770.72;5013937;28;20137;-66
2023/05/27 01:07:39;;;;;;;14.73;4.95;;;;;;;13.82;51.16;102762.94;5013796;28;20025;-66
2023/05/27 01:10:14;;;;;;;16.77;5.03;;;;;;;13.79;51.35;102770.94;5013059;28;20026;-66
2023/05/27 01:12:48;;;;;;;15.50;5.00;;;;;;;13.78;51.19;102767.28;5013911;28;20124;-66
2023/05/27 01:15:14;;;;;;;14.35;4.68;;;;;;;13.85;50.83;102767.22;5015967;28;20091;-66
2023/05/27 01:17:42;;;;;;;12.55;4.47;;;;;;;13.76;51.41;102769.47;5031314;28;20449;-67
2023/05/27 01:20:13;;;;;;;13.55;4.93;;;;;;;13.68;51.32;102767.81;5031357;28;20117;-67
2023/05/27 01:22:41;;;;;;;11.25;4.53;;;;;;;13.73;50.75;102765.19;5018998;28;20464;-66
2023/05/27 01:25:07;;;;;;;14.63;4.60;;;;;;;13.61;51.13;102761.41;5033581;28;20100;-66
2023/05/27 01:27:33;;;;;;;15.52;4.40;;;;;;;13.64;51.00;102760.13;5029107;28;20120;-66
2023/05/27 01:29:59;;;;;;;14.50;4.55;;;;;;;13.64;51.09;102760.13;5017959;28;20112;-67
2023/05/27 01:32:35;;;;;;;17.48;4.60;;;;;;;13.66;51.26;102763.53;5022401;28;20060;-67
2023/05/27 01:35:06;;;;;;;15.77;4.47;;;;;;;13.67;50.88;102762.44;5012732;28;20034;-66
2023/05/27 01:37:35;;;;;;;12.73;4.75;;;;;;;13.61;51.28;102753.06;5013511;28;20141;-66
2023/05/27 01:40:00;;;;;;;16.80;4.90;;;;;;;13.55;51.49;102755.88;5013499;28;20025;-66
2023/05/27 01:42:26;;;;;;;12.98;4.63;;;;;;;13.50;51.23;102743.47;5012473;28;20461;-67
2023/05/27 01:44:53;;;;;;;15.90;5.07;;;;;;;13.43;51.99;102750.19;5013195;28;20100;-66
2023/05/27 01:47:18;;;;;;;14.50;4.50;;;;;;;13.48;51.62;102748.44;5022720;28;20083;-67
2023/05/27 01:49:43;;;;;;;16.05;4.50;;;;;;;13.48;51.77;102747.59;5031151;28;20034;-67
2023/05/27 01:52:08;;;;;;;11.55;4.50;;;;;;;13.46;51.42;102745.00;5014272;28;20105;-66
2023/05/27 01:54:34;;;;;;;17.58;5.10;;;;;;;13.35;52.27;102751.31;5031850;28;20128;-66
2023/05/27 01:57:00;;;;;;;17.05;4.78;;;;;;;13.36;51.88;102750.25;5032370;28;20099;-66
2023/05/27 01:59:26;;;;;;;13.30;4.60;;;;;;;13.39;51.79;102740.56;5032428;28;20061;-67
2023/05/27 02:01:51;;;;;;;13.85;4.93;;;;;;;13.34;51.63;102741.25;5017921;28;20026;-66
2023/05/27 02:04:17;;;;;;;13.57;4.60;;;;;;;13.37;52.05;102740.78;5011975;28;20737;-67
2023/05/27 02:06:42;;;;;;;12.73;4.63;;;;;;;13.33;51.94;102747.91;5011877;28;20368;-67
2023/05/27 02:09:07;;;;;;;15.73;5.70;;;;;;;13.23;52.02;102740.03;5014842;28;20038;-66
2023/05/27 02:11:33;;;;;;;15.80;4.70;;;;;;;13.27;52.04;102740.44;5011847;28;20038;-66
2023/05/27 02:13:59;;;;;;;17.70;4.90;;;;;;;13.24;52.44;102744.53;5014154;28;20024;-66
2023/05/27 02:16:24;;;;;;;12.20;4.70;;;;;;;13.18;52.31;102744.53;5013966;28;20100;-66
2023/05/27 02:18:50;;;;;;;16.02;5.20;;;;;;;13.16;52.50;102758.69;5011801;28;20800;-66
2023/05/27 02:21:15;;;;;;;14.02;4.97;;;;;;;13.11;52.62;102749.31;5012528;28;20030;-67
2023/05/27 02:23:41;;;;;;;16.27;4.93;;;;;;;13.03;52.73;102753.22;5014199;28;20034;-67
2023/05/27 02:26:06;;;;;;;15.23;4.75;;;;;;;13.01;53.06;102753.44;5019947;28;20033;-66
2023/05/27 02:28:31;;;;;;;12.48;4.63;;;;;;;12.95;53.39;102754.31;5032041;28;20033;-67
2023/05/27 02:30:59;;;;;;;12.40;5.22;;;;;;;12.88;53.31;102755.44;5017386;28;20029;-66
2023/05/27 02:33:24;;;;;;;13.05;5.22;;;;;;;12.82;53.25;102750.75;5030765;28;20040;-67
2023/05/27 02:35:49;;;;;;;12.23;4.75;;;;;;;12.82;53.41;102751.63;5029652;28;20041;-67
2023/05/27 02:38:15;;;;;;;13.95;4.80;;;;;;;12.88;53.32;102756.28;5029872;28;20045;-67
2023/05/27 02:40:40;;;;;;;15.15;5.32;;;;;;;12.80;53.21;102748.19;5029277;28;20112;-67
2023/05/27 02:43:05;;;;;;;11.10;5.22;;;;;;;12.77;53.74;102751.41;5019410;28;20389;-67
2023/05/27 02:45:31;;;;;;;14.30;5.22;;;;;;;12.79;53.40;102749.25;5011440;28;20069;-67
2023/05/27 02:48:00;;;;;;;13.45;5.10;;;;;;;12.70;53.59;102750.59;5011118;28;20021;-67
2023/05/27 02:50:26;;;;;;;14.60;5.53;;;;;;;12.75;53.75;102751.63;5027634;28;20037;-66
2023/05/27 02:52:51;;;;;;;11.77;4.85;;;;;;;12.80;53.46;102758.47;5011651;28;20034;-66
2023/05/27 02:55:16;;;;;;;15.10;5.60;;;;;;;12.73;53.77;102756.59;5012258;28;20033;-67
2023/05/27 02:57:42;;;;;;;13.20;4.53;;;;;;;12.74;53.92;102760.22;5011832;28;20466;-66
2023/05/27 03:00:09;;;;;;;14.32;4.75;;;;;;;12.76;53.54;102760.84;5010275;28;20022;-67
2023/05/27 03:02:34;;;;;;;16.92;5.40;;;;;;;12.65;53.87;102764.31;5011114;28;20437;-66
2023/05/27 03:05:01;;;;;;;14.52;4.85;;;;;;;12.71;53.69;102767.09;5022732;28;20029;-66
2023/05/27 03:07:30;;;;;;;14.07;4.93;;;;;;;12.63;53.98;102761.75;5030286;28;20029;-67
2023/05/27 03:09:56;;;;;;;19.13;6.03;;;;;;;12.61;54.14;102768.63;5031768;28;20021;-66
2023/05/27 03:12:22;;;;;;;13.77;5.25;;;;;;;12.51;54.51;102763.53;5016119;28;20030;-66
2023/05/27 03:14:47;;;;;;;14.40;4.82;;;;;;;12.59;54.15;102766.06;5019142;28;20037;-67
2023/05/27 03:17:12;;;;;;;11.88;5.18;;;;;;;12.52;54.29;102760.50;5028677;28;20050;-67
2023/05/27 03:19:38;;;;;;;15.68;5.18;;;;;;;12.59;54.49;102763.28;5026091;28;20033;-67
2023/05/27 03:22:03;;;;;;;16.52;5.00;;;;;;;12.51;54.57;102761.59;5012476;28;20025;-67
2023/05/27 03:24:29;;;;;;;13.50;5.68;;;;;;;12.47;54.49;102754.75;5017795;28;20040;-67
2023/05/27 03:26:54;;;;;;;16.65;5.43;;;;;;;12.48;54.74;102755.59;5031267;28;20032;-67
2023/05/27 03:29:19;;;;;;;12.77;5.30;;;;;;;12.51;54.65;102758.81;5028607;28;20143;-67
2023/05/27 03:31:45;;;;;;;17.83;5.05;;;;;;;12.48;54.45;102756.44;5030207;28;20032;-67
2023/05/27 03:34:10;;;;;;;16.25;6.28;;;;;;;12.56;54.29;102746.16;5031186;28;20021;-67
2023/05/27 03:36:37;;;;;;;16.60;5.03;;;;;;;12.57;54.53;102753.41;5029660;28;20030;-67
2023/05/27 03:39:04;;;;;;;21.98;5.75;;;;;;;12.48;54.63;102744.47;5025836;28;20401;-67
2023/05/27 03:41:30;;;;;;;16.20;5.07;;;;;;;12.51;54.38;102739.31;5010016;28;20040;-67
2023/05/27 03:43:55;;;;;;;16.38;5.30;;;;;;;12.49;54.62;102741.44;5010519;28;20033;-68
2023/05/27 03:46:20;;;;;;;20.98;5.97;;;;;;;12.50;54.65;102739.53;5017786;28;20033;-67
2023/05/27 03:48:45;;;;;;;17.85;5.10;;;;;;;12.55;54.64;102736.09;5027776;28;20120;-67
2023/05/27 03:51:11;;;;;;;18.85;5.65;;;;;;;12.44;54.76;102738.47;5022955;28;20033;-68
2023/05/27 03:53:36;;;;;;;16.60;5.53;;;;;;;12.38;54.96;102733.78;5027069;28;20041;-68
2023/05/27 03:56:01;;;;;;;15.55;5.03;;;;;;;12.41;55.22;102727.75;5022217;28;20063;-68
2023/05/27 03:58:27;;;;;;;14.15;5.10;;;;;;;12.44;54.97;102729.25;5030075;28;20025;-67
2023/05/27 04:00:52;;;;;;;15.40;5.20;;;;;;;12.37;55.10;102732.06;5022795;28;20026;-68
2023/05/27 04:03:18;;;;;;;15.60;5.18;;;;;;;12.38;55.36;102727.34;5010007;28;20030;-67
2023/05/27 04:05:43;;;;;;;17.20;5.80;;;;;;;12.37;55.42;102728.44;5010235;28;20044;-67
2023/05/27 04:08:08;;;;;;;17.15;6.00;;;;;;;12.36;55.34;102738.72;5010800;28;20033;-67
2023/05/27 04:10:34;;;;;;;14.93;5.50;;;;;;;12.34;55.47;102729.75;5016588;28;20568;-67
2023/05/27 04:12:59;;;;;;;16.30;5.63;;;;;;;12.39;55.05;102735.50;5025529;28;20037;-67
2023/05/27 04:15:26;;;;;;;20.02;6.05;;;;;;;12.35;55.17;102730.59;5028239;28;20109;-67
2023/05/27 04:17:51;;;;;;;16.58;5.38;;;;;;;12.37;55.42;102732.06;5027916;28;20861;-67
2023/05/27 04:20:17;;;;;;;16.25;5.32;;;;;;;12.32;55.52;102725.47;5029118;28;20037;-67
2023/05/27 04:22:43;;;;;;;16.48;5.30;;;;;;;12.26;55.60;102735.53;5029565;28;20500;-67
2023/05/27 04:25:08;;;;;;;17.17;5.38;;;;;;;12.20;56.31;102725.28;5027690;28;20033;-67
2023/05/27 04:27:34;;;;;;;13.85;5.78;;;;;;;12.27;55.90;102721.41;5026596;28;20112;-67
2023/05/27 04:30:00;;;;;;;16.95;6.35;;;;;;;12.25;55.85;102722.69;5012978;28;20057;-67
2023/05/27 04:32:27;;;;;;;15.20;5.40;;;;;;;12.32;56.12;102715.16;5017019;28;20535;-67
2023/05/27 04:34:53;;;;;;;15.30;5.60;;;;;;;12.32;55.78;102711.53;5014286;28;20080;-68
2023/05/27 04:37:19;;;;;;;15.93;5.68;;;;;;;12.30;55.93;102714.56;5015767;28;20029;-67
2023/05/27 04:39:46;;;;;;;19.08;6.03;;;;;;;12.32;56.04;102706.81;5018517;28;20026;-68
2023/05/27 04:42:12;;;;;;;21.30;5.88;;;;;;;12.30;56.10;102708.97;5021568;28;20022;-67
2023/05/27 04:44:38;;;;;;;18.17;5.72;;;;;;;12.30;56.29;102708.97;5015799;28;20967;-67
2023/05/27 04:47:06;;;;;;;16.02;6.20;;;;;;;12.34;56.24;102709.38;5015446;28;20087;-67
2023/05/27 04:49:32;;;;;;;15.27;5.60;;;;;;;12.28;56.31;102711.97;5019602;28;20048;-67
2023/05/27 04:51:57;;;;;;;17.23;6.00;;;;;;;12.21;56.74;102699.13;5015119;28;20037;-67
2023/05/27 04:54:23;;;;;;;17.10;5.28;;;;;;;12.24;56.29;102709.84;5015876;28;20068;-67
2023/05/27 04:56:51;;;;;;;20.38;6.03;;;;;;;12.23;56.67;102708.13;5020555;28;20067;-68
2023/05/27 04:59:19;;;;;;;20.63;6.43;;;;;;;12.27;56.86;102698.28;5013543;28;20092;-66
2023/05/27 05:04:29;;;;;;;15.27;6.18;;;;;;;12.29;56.63;102696.13;5012648;28;20826;-66
2023/05/27 05:06:55;;;;;;;18.17;6.70;;;;;;;12.34;56.67;102693.53;5013584;28;20029;-66
2023/05/27 05:09:21;;;;;;;15.85;5.72;;;;;;;12.32;56.78;102695.69;5022063;28;20036;-67
2023/05/27 05:11:46;;;;;;;17.08;5.68;;;;;;;12.31;57.01;102693.97;5024060;28;20381;-67
2023/05/27 05:14:11;;;;;;;19.80;6.00;;;;;;;12.34;56.82;102695.44;5027803;28;20026;-66
2023/05/27 05:16:37;;;;;;;22.75;6.25;;;;;;;12.36;56.75;102694.16;5020825;28;20091;-66
2023/05/27 05:19:02;;;;;;;18.63;6.60;;;;;;;12.37;57.19;102703.38;5032314;28;20098;-66
2023/05/27 05:21:27;;;;;;;19.15;6.72;;;;;;;12.33;57.02;102705.72;5027856;28;20112;-66
2023/05/27 05:23:52;;;;;;;15.20;6.63;;;;;;;12.37;57.02;102692.22;5022490;28;20048;-67
2023/05/27 05:26:18;;;;;;;14.25;6.55;;;;;;;12.48;56.79;102697.97;5014685;28;20526;-68
2023/05/27 05:28:43;;;;;;;21.08;6.57;;;;;;;12.47;57.14;102699.03;5029502;28;20048;-67
2023/05/27 05:31:08;;;;;;;16.10;5.75;;;;;;;12.37;57.39;102693.06;5033241;28;20167;-67
2023/05/27 05:33:33;;;;;;;16.92;6.47;;;;;;;12.26;57.75;102696.53;5033681;28;20045;-68
2023/05/27 05:35:59;;;;;;;19.35;7.30;;;;;;;12.28;57.88;102697.19;5029846;28;20048;-67
2023/05/27 05:38:24;;;;;;;16.25;6.75;;;;;;;12.41;57.77;102694.34;5017297;28;20681;-67
2023/05/27 05:40:52;;;;;;;18.67;6.85;;;;;;;12.38;57.56;102693.94;5012411;28;20030;-67
2023/05/27 05:43:17;;;;;;;19.33;7.18;;;;;;;12.42;57.94;102689.66;5011800;28;20022;-67
2023/05/27 05:45:42;;;;;;;17.23;6.45;;;;;;;12.41;57.38;102694.34;5013530;28;20029;-67
2023/05/27 05:48:08;;;;;;;17.48;6.65;;;;;;;12.49;57.39;102688.53;5012201;28;20030;-66
2023/05/27 05:50:33;;;;;;;20.23;6.43;;;;;;;12.55;57.84;102688.75;5022733;28;20041;-66
2023/05/27 05:52:58;;;;;;;20.65;7.00;;;;;;;12.68;57.90;102688.66;5030681;28;20025;-66
2023/05/27 05:55:23;;;;;;;22.90;6.88;;;;;;;12.80;57.35;102681.28;5020180;28;20030;-68
2023/05/27 05:57:49;;;;;;;16.13;6.53;;;;;;;12.86;57.07;102685.13;5013470;28;20045;-66
2023/05/27 06:00:15;;;;;;;16.50;7.00;;;;;;;12.86;56.86;102672.06;5016901;28;20380;-66
2023/05/27 06:02:40;;;;;;;22.33;6.72;;;;;;;12.80;56.46;102670.16;5019158;28;20475;-66
2023/05/27 06:05:06;;;;;;;17.75;7.03;;;;;;;12.87;56.58;102664.53;5012656;28;20026;-66
2023/05/27 06:07:32;;;;;;;20.67;7.13;;;;;;;12.88;57.22;102667.09;5012643;28;20026;-66
2023/05/27 06:09:57;;;;;;;16.13;6.65;;;;;;;12.95;57.32;102670.69;5012072;28;20030;-66
2023/05/27 06:12:22;;;;;;;18.77;6.65;;;;;;;12.98;56.95;102675.81;5012874;28;20061;-67
2023/05/27 06:14:47;;;;;;;16.58;6.85;;;;;;;13.13;57.08;102671.88;5012977;28;20034;-66
2023/05/27 06:17:13;;;;;;;17.00;7.03;;;;;;;13.17;56.56;102665.63;5022029;28;20043;-66
2023/05/27 06:19:38;;;;;;;20.45;7.28;;;;;;;13.27;56.03;102668.78;5024764;28;20060;-66
2023/05/27 06:22:05;;;;;;;20.27;6.88;;;;;;;13.27;56.69;102665.13;5031919;28;20017;-66
2023/05/27 06:24:30;;;;;;;24.00;6.80;;;;;;;13.33;56.64;102664.25;5031136;28;20033;-66
2023/05/27 06:26:56;;;;;;;20.90;7.13;;;;;;;13.35;56.11;102664.00;5032648;28;20036;-66
2023/05/27 06:29:21;;;;;;;21.08;7.15;;;;;;;13.36;56.52;102661.00;5031997;28;20571;-66
2023/05/27 06:31:48;;;;;;;19.48;6.70;;;;;;;13.45;56.53;102650.41;5031772;28;20021;-66
2023/05/27 06:34:13;;;;;;;15.27;6.95;;;;;;;13.44;56.13;102665.41;5019420;28;20049;-66
2023/05/27 06:36:38;;;;;;;18.65;6.50;;;;;;;13.51;55.84;102653.09;5012212;28;20058;-66
2023/05/27 06:39:04;;;;;;;18.55;6.85;;;;;;;13.50;55.98;102665.34;5011198;28;20041;-66
2023/05/27 06:41:29;;;;;;;18.67;7.10;;;;;;;13.46;55.99;102660.47;5012554;28;20026;-66
2023/05/27 06:43:54;;;;;;;17.35;6.78;;;;;;;13.46;56.08;102655.75;5011759;28;20064;-66
2023/05/27 06:46:20;;;;;;;22.33;7.50;;;;;;;13.56;56.23;102648.78;5011636;28;20843;-66
2023/05/27 06:48:45;;;;;;;17.20;6.97;;;;;;;13.67;55.97;102653.59;5023633;28;20045;-66
2023/05/27 06:51:10;;;;;;;22.52;7.72;;;;;;;13.69;55.98;102651.47;5027914;28;20100;-67
2023/05/27 06:53:35;;;;;;;20.10;7.13;;;;;;;13.67;56.04;102650.81;5030745;28;20449;-66
2023/05/27 06:56:01;;;;;;;14.73;6.60;;;;;;;13.68;55.58;102652.53;5031498;28;20044;-66
2023/05/27 06:58:26;;;;;;;22.42;7.53;;;;;;;13.78;55.92;102644.47;5017524;28;20036;-66
2023/05/27 07:00:51;;;;;;;20.27;7.20;;;;;;;13.93;56.28;102647.75;5009876;28;20049;-66
2023/05/27 07:03:17;;;;;;;19.73;7.53;;;;;;;13.99;55.60;102649.63;5015378;28;20033;-66
2023/05/27 07:05:42;;;;;;;18.83;7.30;;;;;;;13.94;55.25;102643.03;5008998;28;20041;-66
2023/05/27 07:08:07;;;;;;;17.73;7.75;;;;;;;13.97;55.33;102636.97;5010470;28;20359;-66
2023/05/27 07:10:32;;;;;;;19.10;7.78;;;;;;;14.08;55.86;102643.72;5015624;28;20029;-66
2023/05/27 07:12:58;;;;;;;20.80;7.70;;;;;;;14.23;55.52;102642.25;5017793;28;20034;-66
2023/05/27 07:15:25;;;;;;;18.42;8.10;;;;;;;14.31;54.66;102648.59;5009509;28;20034;-66
2023/05/27 07:17:50;;;;;;;19.85;7.97;;;;;;;14.36;54.82;102651.53;5020132;28;20041;-66
2023/05/27 07:20:16;;;;;;;20.88;7.45;;;;;;;14.45;54.54;102647.31;5026189;28;20219;-66
2023/05/27 07:22:41;;;;;;;24.60;7.65;;;;;;;14.49;54.74;102646.66;5022482;28;20455;-66
2023/05/27 07:25:07;;;;;;;16.38;7.25;;;;;;;14.56;54.24;102645.72;5027192;28;20103;-67
2023/05/27 07:27:32;;;;;;;21.63;7.88;;;;;;;14.64;54.82;102646.22;5018113;28;20670;-66
2023/05/27 07:29:57;;;;;;;21.40;7.72;;;;;;;14.76;54.22;102632.31;5022065;28;20117;-66
2023/05/27 07:32:23;;;;;;;17.50;7.38;;;;;;;14.83;54.06;102624.69;5027648;28;20025;-67
2023/05/27 07:34:48;;;;;;;19.52;7.53;;;;;;;14.95;53.75;102630.28;5012041;28;20539;-66
2023/05/27 07:37:13;;;;;;;21.25;7.72;;;;;;;14.96;52.83;102632.84;5010973;28;20025;-66
2023/05/27 07:39:39;;;;;;;14.77;7.10;;;;;;;14.96;53.27;102632.00;5010550;28;20037;-66
2023/05/27 07:42:05;;;;;;;19.65;7.97;;;;;;;15.05;53.27;102635.28;5009985;28;20033;-66
2023/05/27 07:44:30;;;;;;;18.95;7.93;;;;;;;15.15;53.56;102622.44;5017119;28;20093;-66
2023/05/27 07:46:55;;;;;;;17.80;7.53;;;;;;;15.18;52.47;102626.69;5030433;28;20022;-66
2023/05/27 07:49:21;;;;;;;19.23;8.05;;;;;;;15.15;53.34;102618.78;5014204;28;20521;-66
2023/05/27 07:51:47;;;;;;;25.20;7.40;;;;;;;15.17;53.12;102619.41;5010685;28;20037;-66
2023/05/27 07:54:12;;;;;;;15.45;7.63;;;;;;;15.31;53.50;102614.44;5009962;28;20486;-66
2023/05/27 07:56:37;;;;;;;22.77;7.93;;;;;;;15.38;52.66;102601.19;5010064;28;20087;-66
2023/05/27 07:59:03;;;;;;;16.25;7.63;;;;;;;15.45;52.47;102602.75;5010214;28;20037;-66
2023/05/27 08:01:32;;;;;;;20.83;7.97;;;;;;;15.48;52.31;102607.00;5011112;28;20038;-66
2023/05/27 08:03:57;;;;;;;24.30;7.47;;;;;;;15.56;52.79;102592.66;5010009;28;20040;-66
2023/05/27 08:06:23;;;;;;;20.05;7.60;;;;;;;15.68;52.58;102599.13;5010407;28;20765;-66
2023/05/27 08:08:48;;;;;;;20.10;7.93;;;;;;;15.73;51.09;102597.56;5010195;28;20083;-66
2023/05/27 08:11:13;;;;;;;20.77;8.20;;;;;;;15.77;51.83;102593.16;5018929;28;20109;-66
2023/05/27 08:13:39;;;;;;;20.60;8.07;;;;;;;15.79;51.78;102583.41;5030734;28;20038;-66
2023/05/27 08:16:04;;;;;;;19.38;8.02;;;;;;;15.91;52.05;102589.81;5024317;28;20079;-66
2023/05/27 08:18:29;;;;;;;18.58;7.75;;;;;;;15.93;51.41;102581.19;5030515;28;20032;-66
2023/05/27 08:20:55;;;;;;;20.55;7.55;;;;;;;15.98;51.49;102574.84;5030028;28;20022;-66
2023/05/27 08:23:20;;;;;;;21.42;8.40;;;;;;;16.02;51.58;102578.84;5025788;28;20052;-66
2023/05/27 08:25:45;;;;;;;19.55;7.85;;;;;;;16.03;51.13;102573.00;5026988;28;20107;-66
2023/05/27 08:28:11;;;;;;;15.00;7.25;;;;;;;16.11;51.53;102574.56;5010908;28;20025;-67
2023/05/27 08:30:36;;;;;;;18.42;7.55;;;;;;;16.16;52.41;102571.88;5009340;28;20351;-67
2023/05/27 08:33:02;;;;;;;16.60;7.30;;;;;;;16.34;51.23;102568.88;5009621;28;20068;-65
2023/05/27 08:35:27;;;;;;;19.80;7.72;;;;;;;16.45;51.45;102553.94;5018763;28;20025;-65
2023/05/27 08:37:53;;;;;;;21.38;8.32;;;;;;;16.52;50.74;102555.75;5013940;28;20029;-67
2023/05/27 08:40:19;;;;;;;17.98;7.18;;;;;;;16.57;49.86;102544.63;5011409;28;20060;-66
2023/05/27 08:42:46;;;;;;;20.92;7.15;;;;;;;16.67;50.08;102547.63;5027422;28;20033;-67
2023/05/27 08:45:11;;;;;;;20.52;7.85;;;;;;;16.71;50.00;102546.03;5024019;28;20036;-73
2023/05/27 08:47:38;;;;;;;21.20;8.82;;;;;;;16.78;50.15;102541.13;5023938;28;20033;-63
2023/05/27 08:50:04;;;;;;;18.27;8.00;;;;;;;16.81;50.00;102536.97;5014712;28;20112;-60
2023/05/27 08:52:30;;;;;;;22.15;7.85;;;;;;;16.87;50.58;102534.00;5011269;28;20040;-63
2023/05/27 08:54:59;;;;;;;18.13;7.55;;;;;;;16.93;50.13;102546.97;5018534;28;20041;-67
2023/05/27 08:57:29;;;;;;;22.02;7.95;;;;;;;16.98;49.31;102534.16;5013333;28;20623;-67
2023/05/27 08:59:55;;;;;;;16.90;7.60;;;;;;;17.07;49.41;102525.06;5024376;28;20393;-67
2023/05/27 09:02:21;;;;;;;20.52;7.80;;;;;;;17.12;49.73;102522.31;5019376;28;20018;-65
2023/05/27 09:04:48;;;;;;;24.35;8.57;;;;;;;17.13;48.41;102520.38;5023179;28;20080;-66
2023/05/27 09:07:13;;;;;;;20.48;7.93;;;;;;;17.17;49.46;102527.16;5008515;28;20033;-66
2023/05/27 09:09:39;;;;;;;19.95;7.38;;;;;;;17.19;48.56;102524.97;5009622;28;20041;-65
2023/05/27 09:12:08;;;;;;;15.95;6.55;;;;;;;17.31;49.75;102519.25;5010153;28;20630;-65
2023/05/27 09:14:34;;;;;;;20.67;7.93;;;;;;;17.31;48.47;102513.63;5009732;28;20037;-65
2023/05/27 09:17:06;;;;;;;14.85;6.07;;;;;;;17.54;49.60;102518.19;5022860;28;20042;-65
2023/05/27 09:19:31;;;;;;;18.88;7.45;;;;;;;17.59;48.63;102507.00;5018297;28;20067;-62
2023/05/27 09:21:56;;;;;;;14.13;4.78;;;;;;;17.85;50.52;102514.69;5013902;28;20120;-64
2023/05/27 09:24:25;;;;;;;19.50;5.80;;;;;;;17.98;49.77;102507.81;5022263;28;20033;-65
2023/05/27 09:26:55;;;;;;;25.83;7.88;;;;;;;18.02;48.52;102505.34;5019942;28;20038;-66
2023/05/27 09:29:24;;;;;;;12.93;5.80;;;;;;;18.08;47.30;102501.50;5019536;28;20033;-65
2023/05/27 09:31:55;;;;;;;15.68;5.90;;;;;;;18.13;46.43;102501.53;5014162;28;20102;-64
2023/05/27 09:34:20;;;;;;;19.27;6.60;;;;;;;18.18;46.45;102489.50;5016183;28;20148;-64
2023/05/27 09:36:48;;;;;;;16.08;6.22;;;;;;;18.24;46.55;102491.25;5017646;28;20175;-61
2023/05/27 09:39:14;;;;;;;18.80;6.85;;;;;;;18.27;45.47;102496.31;5017507;28;20056;-61
2023/05/27 09:41:40;;;;;;;18.83;6.28;;;;;;;18.29;45.39;102488.50;5018310;28;20037;-61
2023/05/27 09:44:06;;;;;;;16.58;5.85;;;;;;;18.35;45.81;102485.47;5020195;28;21080;-65
2023/05/27 09:46:33;;;;;;;19.50;7.20;;;;;;;18.40;45.13;102490.28;5029190;28;20061;-66
2023/05/27 09:49:00;;;;;;;21.27;7.82;;;;;;;18.42;45.83;102482.44;5012557;28;20032;-64
2023/05/27 09:51:29;;;;;;;19.25;7.18;;;;;;;18.53;46.19;102486.19;5014145;28;20063;-65
2023/05/27 09:53:56;;;;;;;15.40;6.07;;;;;;;18.62;44.99;102478.94;5016297;28;20043;-64
2023/05/27 09:56:23;;;;;;;14.23;6.18;;;;;;;18.72;45.30;102473.47;5016795;28;20099;-63
2023/05/27 09:58:49;;;;;;;18.27;6.78;;;;;;;18.75;44.61;102464.50;5020461;28;20025;-63
2023/05/27 10:01:18;;;;;;;17.38;6.82;;;;;;;18.82;46.33;102465.13;5012110;28;20057;-64
2023/05/27 10:03:45;;;;;;;17.55;7.70;;;;;;;18.92;45.91;102457.84;5011703;28;20068;-64
2023/05/27 10:06:15;;;;;;;19.13;7.07;;;;;;;18.94;45.48;102467.69;5011327;28;20179;-64
2023/05/27 10:08:43;;;;;;;20.67;6.43;;;;;;;18.84;43.29;102468.50;5026798;28;20546;-66
2023/05/27 10:11:10;;;;;;;16.42;6.45;;;;;;;18.76;43.83;102460.56;5015900;28;20037;-64
2023/05/27 10:13:36;;;;;;;20.73;6.93;;;;;;;18.71;44.13;102456.88;5011469;28;20030;-66
2023/05/27 10:16:02;;;;;;;21.00;6.50;;;;;;;18.65;44.28;102453.97;5012591;28;20421;-65
2023/05/27 10:18:29;;;;;;;15.70;6.43;;;;;;;18.57;43.62;102459.22;5022643;28;20026;-65
2023/05/27 10:20:56;;;;;;;25.80;6.60;;;;;;;18.52;43.58;102450.75;5014462;28;20076;-66
2023/05/27 10:23:26;;;;;;;23.05;6.55;;;;;;;18.51;44.15;102454.66;5018839;28;20069;-66
2023/05/27 10:25:57;;;;;;;29.00;9.90;;;;;;;18.58;45.49;102442.09;5020242;28;20060;-66
2023/05/27 10:28:41;;;;;;;19.42;8.00;;;;;;;18.59;45.40;102446.63;5018689;28;20048;-65
2023/05/27 10:31:07;;;;;;;22.48;7.88;;;;;;;18.63;45.66;102441.31;5021445;28;20103;-64
2023/05/27 10:33:42;;;;;;;20.70;7.85;;;;;;;18.69;45.42;102440.22;5024535;28;20021;-64
2023/05/27 10:36:10;;;;;;;16.88;7.07;;;;;;;18.79;44.87;102437.50;5010927;28;20237;-63
2023/05/27 10:38:36;;;;;;;26.35;9.73;;;;;;;18.93;46.01;102431.41;5021191;28;20545;-65
2023/05/27 10:41:03;;;;;;;15.48;7.05;;;;;;;18.98;45.55;102442.69;5029713;28;20359;-61
2023/05/27 10:43:30;;;;;;;23.58;6.80;;;;;;;19.01;43.98;102428.94;5014036;28;20022;-63
2023/05/27 10:46:09;;;;;;;19.15;7.53;;;;;;;19.06;43.60;102433.72;5011517;28;20029;-64
2023/05/27 10:48:36;;;;;;;18.05;6.25;;;;;;;19.12;43.08;102427.03;5011799;28;20060;-64
2023/05/27 10:51:02;;;;;;;22.02;7.55;;;;;;;19.20;44.16;102425.66;5016425;28;20072;-64
2023/05/27 10:53:28;;;;;;;24.77;8.38;;;;;;;19.27;44.52;102418.66;5029071;28;20565;-67
2023/05/27 10:55:54;;;;;;;18.80;7.57;;;;;;;19.34;44.48;102415.63;5018462;28;20065;-65
2023/05/27 10:58:20;;;;;;;17.08;7.60;;;;;;;19.45;45.34;102411.69;5030856;28;20061;-64
2023/05/27 11:00:58;;;;;;;21.10;8.05;;;;;;;19.49;44.37;102412.88;5027210;28;20100;-65
2023/05/27 11:03:26;;;;;;;20.55;8.55;;;;;;;19.59;45.21;102410.06;5010354;28;20458;-66
2023/05/27 11:06:05;;;;;;;22.40;9.40;;;;;;;19.60;43.83;102396.84;5021583;28;20029;-64
2023/05/27 11:08:34;;;;;;;20.10;8.02;;;;;;;19.65;43.31;102401.66;5019494;28;20025;-65
2023/05/27 11:11:05;;;;;;;20.65;7.82;;;;;;;19.72;42.80;102393.81;5016246;28;20049;-67
2023/05/27 11:13:30;;;;;;;16.98;7.30;;;;;;;19.82;43.15;102393.84;5019427;28;20488;-65
2023/05/27 11:15:55;;;;;;;19.13;6.93;;;;;;;19.76;41.30;102390.16;5010387;28;20147;-66